Tobago-Crown Point Airport Scarborough TT
ICAO: TTCP
IATA:
Category: Medium
Scheduled Services:

Elevation: 38 ft
TransAlt. 4100 ft.

Airport Communications:
PIARCO APP:119
GND:121.7
TWR:118.4

TTCP Zoom In..

If you have problems with the map follow the link
https://www.worldairports.se/pages/airport.php?
ICAO=TTCP

Runways:

(A) RW 11 length 8999 ft width 148 ft
ILS 109.30 / hdg 109

(B) RW 29 length 8999 ft width 148 ft
---- / hdg 289

Location; TTCP
Day. 22 / Time. 08.00 Zulu
* QNH: 1009
* Temperature: 25° c. 77°f.
* Wind from: 030° Speed 03 kn.
Dewpoint: 22° c.
Visibility: 10 km or more.
Clouds: Few 1600 ft.
No significant changes expected in the near future.

TTCP 220800Z 03003KT 9999 FEW016 25/22 Q1009 NOSIG


Wind From 030°
Speed 03 kn.

 
 
jpsmedia worldairports.se 2019   terms of use